createdAt,value
2018-12-16T00:00:26.298Z,20.30
2018-12-16T00:02:53.969Z,20.30
2018-12-16T00:05:21.559Z,20.30
2018-12-16T00:07:49.474Z,20.30
2018-12-16T00:10:16.960Z,20.30
2018-12-16T00:12:44.490Z,20.30
2018-12-16T00:15:11.999Z,20.20
2018-12-16T00:17:39.510Z,20.30
2018-12-16T00:20:07.014Z,20.30
2018-12-16T00:22:34.598Z,20.20
2018-12-16T00:25:02.170Z,20.10
2018-12-16T00:27:29.677Z,20.20
2018-12-16T00:29:57.188Z,20.10
2018-12-16T00:32:24.795Z,20.20
2018-12-16T00:34:52.288Z,20.10
2018-12-16T00:37:20.209Z,20.10
2018-12-16T00:39:47.725Z,20.10
2018-12-16T00:42:15.217Z,20.10
2018-12-16T00:44:42.730Z,20.10
2018-12-16T00:47:10.230Z,20.10
2018-12-16T00:49:37.746Z,20.10
2018-12-16T00:52:05.240Z,20.10
2018-12-16T00:54:32.766Z,20.10
2018-12-16T00:57:00.264Z,20.10
2018-12-16T00:59:27.785Z,20.10
2018-12-16T01:01:55.665Z,20.10
2018-12-16T01:04:23.153Z,20.10
2018-12-16T01:06:51.434Z,20.10
2018-12-16T01:09:18.949Z,20.10
2018-12-16T01:11:46.441Z,20.00
2018-12-16T01:14:14.037Z,20.00
2018-12-16T01:16:41.540Z,20.00
2018-12-16T01:19:09.046Z,20.00
2018-12-16T01:21:36.569Z,20.00
2018-12-16T01:24:04.067Z,20.00
2018-12-16T01:26:31.581Z,20.00
2018-12-16T01:28:59.100Z,20.00
2018-12-16T01:31:26.598Z,20.00
2018-12-16T01:33:54.114Z,19.90
2018-12-16T01:36:21.612Z,20.00
2018-12-16T01:38:49.131Z,20.00
2018-12-16T01:41:16.644Z,19.90
2018-12-16T01:43:44.180Z,19.90
2018-12-16T01:46:11.685Z,19.90
2018-12-16T01:48:39.853Z,19.90
2018-12-16T01:51:07.861Z,19.90
2018-12-16T01:53:35.701Z,19.90
2018-12-16T01:56:03.387Z,19.90
2018-12-16T01:58:31.327Z,19.90
2018-12-16T02:00:58.834Z,19.90
2018-12-16T02:03:26.512Z,19.90
2018-12-16T02:05:54.364Z,19.90
2018-12-16T02:08:21.882Z,19.90
2018-12-16T02:10:49.394Z,19.90
2018-12-16T02:13:16.894Z,19.90
2018-12-16T02:15:44.421Z,19.90
2018-12-16T02:18:11.920Z,19.90
2018-12-16T02:20:39.671Z,19.90
2018-12-16T02:23:07.223Z,19.90
2018-12-16T02:25:35.170Z,19.90
2018-12-16T02:28:03.068Z,19.90
2018-12-16T02:30:30.861Z,19.90
2018-12-16T02:32:58.548Z,19.90
2018-12-16T02:35:26.415Z,19.90
2018-12-16T02:37:53.925Z,19.90
2018-12-16T02:40:21.649Z,19.90
2018-12-16T02:42:49.388Z,19.90
2018-12-16T02:45:17.010Z,19.90
2018-12-16T02:47:47.173Z,19.90
2018-12-16T02:50:14.665Z,19.90
2018-12-16T02:52:42.613Z,19.90
2018-12-16T02:55:10.318Z,19.80
2018-12-16T02:57:37.909Z,19.90
2018-12-16T03:00:06.977Z,19.90
2018-12-16T03:02:34.523Z,19.90
2018-12-16T03:05:02.171Z,19.90
2018-12-16T03:07:29.798Z,19.90
2018-12-16T03:09:57.908Z,19.90
2018-12-16T03:12:25.963Z,19.90
2018-12-16T03:14:53.472Z,19.90
2018-12-16T03:17:21.562Z,19.80
2018-12-16T03:19:49.057Z,19.90
2018-12-16T03:22:17.059Z,19.90
2018-12-16T03:24:46.935Z,19.80
2018-12-16T03:27:15.230Z,19.90
2018-12-16T03:32:46.825Z,19.90
2018-12-16T03:35:16.785Z,19.80
2018-12-16T03:37:46.821Z,19.80
2018-12-16T03:40:16.301Z,19.80
2018-12-16T03:42:43.822Z,19.70
2018-12-16T03:45:11.907Z,19.70
2018-12-16T03:47:41.715Z,19.70
2018-12-16T03:50:11.440Z,19.70
2018-12-16T03:52:38.950Z,19.70
2018-12-16T03:55:06.458Z,19.70
2018-12-16T03:57:33.953Z,19.60
2018-12-16T04:00:01.498Z,19.60
2018-12-16T04:02:29.086Z,19.60
2018-12-16T04:04:56.712Z,19.60
2018-12-16T04:07:24.826Z,19.60
2018-12-16T04:09:52.320Z,19.60
2018-12-16T04:12:19.843Z,19.60
2018-12-16T04:14:54.145Z,19.50
2018-12-16T04:17:22.233Z,19.50
2018-12-16T04:19:49.799Z,19.50
2018-12-16T04:22:17.302Z,19.50
2018-12-16T04:24:44.794Z,19.50
2018-12-16T04:27:12.322Z,19.50
2018-12-16T04:29:39.800Z,19.40
2018-12-16T04:32:07.302Z,19.40
2018-12-16T04:34:34.807Z,19.40
2018-12-16T04:37:02.294Z,19.40
2018-12-16T04:39:29.802Z,19.40
2018-12-16T04:41:57.987Z,19.40
2018-12-16T04:44:25.499Z,19.40
2018-12-16T04:46:52.987Z,19.40
2018-12-16T04:49:20.536Z,19.40
2018-12-16T04:51:48.022Z,19.40
2018-12-16T04:54:15.525Z,19.40
2018-12-16T04:56:43.908Z,19.30
2018-12-16T04:59:11.455Z,19.30
2018-12-16T05:01:38.957Z,19.30
2018-12-16T05:04:06.470Z,19.30
2018-12-16T05:06:33.976Z,19.30
2018-12-16T05:09:01.521Z,19.30
2018-12-16T05:11:29.072Z,19.20
2018-12-16T05:13:56.742Z,19.30
2018-12-16T05:16:25.049Z,19.30
2018-12-16T05:18:52.581Z,19.20
2018-12-16T05:21:20.185Z,19.20
2018-12-16T05:23:47.688Z,19.20
2018-12-16T05:26:15.191Z,19.20
2018-12-16T05:28:42.929Z,19.20
2018-12-16T05:31:10.697Z,19.20
2018-12-16T05:33:38.229Z,19.20
2018-12-16T05:36:05.713Z,19.20
2018-12-16T05:38:33.205Z,19.20
2018-12-16T05:41:01.542Z,19.10
2018-12-16T05:43:29.038Z,19.20
2018-12-16T05:45:56.542Z,19.20
2018-12-16T05:48:24.026Z,19.10
2018-12-16T05:50:52.070Z,19.20
2018-12-16T05:53:19.559Z,19.10
2018-12-16T05:55:47.063Z,19.10
2018-12-16T05:58:14.545Z,19.10
2018-12-16T06:00:42.685Z,19.10
2018-12-16T06:03:10.637Z,19.10
2018-12-16T06:05:38.144Z,19.10
2018-12-16T06:08:05.666Z,19.10
2018-12-16T06:10:33.264Z,19.10
2018-12-16T06:13:00.821Z,19.10
2018-12-16T06:15:28.710Z,19.10
2018-12-16T06:17:56.575Z,19.10
2018-12-16T06:20:25.123Z,19.10
2018-12-16T06:22:52.624Z,19.10
2018-12-16T06:25:20.113Z,19.10
2018-12-16T06:27:47.621Z,19.10
2018-12-16T06:30:15.478Z,19.10
2018-12-16T06:32:42.984Z,19.00
2018-12-16T06:35:10.624Z,19.10
2018-12-16T06:37:38.133Z,19.10
2018-12-16T06:40:05.627Z,19.00
2018-12-16T06:42:33.142Z,19.10
2018-12-16T06:45:00.650Z,19.10
2018-12-16T06:47:28.550Z,19.10
2018-12-16T06:49:56.090Z,19.10
2018-12-16T06:52:23.580Z,19.10
2018-12-16T06:54:51.102Z,19.00
2018-12-16T06:57:18.672Z,19.00
2018-12-16T06:59:46.177Z,19.00
2018-12-16T07:02:13.745Z,19.00
2018-12-16T07:04:41.273Z,19.00
2018-12-16T07:07:08.797Z,19.00
2018-12-16T07:09:36.290Z,19.00
2018-12-16T07:12:03.846Z,19.00
2018-12-16T07:14:31.343Z,19.00
2018-12-16T07:16:58.830Z,19.00
2018-12-16T07:19:26.374Z,19.00
2018-12-16T07:21:53.943Z,19.00
2018-12-16T07:24:21.469Z,19.00
2018-12-16T07:26:49.051Z,19.00
2018-12-16T07:29:16.555Z,19.00
2018-12-16T07:31:44.325Z,19.00
2018-12-16T07:34:11.943Z,19.00
2018-12-16T07:36:39.699Z,19.00
2018-12-16T07:39:07.265Z,19.00
2018-12-16T07:41:34.893Z,19.00
2018-12-16T07:44:02.475Z,19.00
2018-12-16T07:46:30.054Z,19.00
2018-12-16T07:48:57.914Z,19.00
2018-12-16T07:51:25.981Z,19.00
2018-12-16T07:53:53.475Z,19.00
2018-12-16T07:56:21.689Z,18.90
2018-12-16T07:58:49.161Z,19.00
2018-12-16T08:01:16.712Z,19.00
2018-12-16T08:03:44.191Z,19.00
2018-12-16T08:06:11.697Z,18.90
2018-12-16T08:08:39.209Z,19.00
2018-12-16T08:11:06.714Z,18.90
2018-12-16T08:13:34.210Z,18.90
2018-12-16T08:16:01.702Z,18.90
2018-12-16T08:18:29.305Z,18.90
2018-12-16T08:20:56.829Z,18.90
2018-12-16T08:23:24.404Z,18.90
2018-12-16T08:25:52.149Z,18.90
2018-12-16T08:28:19.657Z,18.80
2018-12-16T08:30:47.168Z,18.80
2018-12-16T08:33:14.715Z,18.80
2018-12-16T08:35:42.218Z,18.80
2018-12-16T08:38:10.554Z,18.80
2018-12-16T08:40:38.149Z,18.80
2018-12-16T08:43:05.689Z,18.70
2018-12-16T08:45:33.183Z,18.80
2018-12-16T08:48:00.669Z,18.80
2018-12-16T08:50:28.176Z,18.80
2018-12-16T08:52:56.217Z,18.80
2018-12-16T08:55:24.194Z,18.80
2018-12-16T08:57:51.681Z,18.80
2018-12-16T09:00:19.181Z,18.80
2018-12-16T09:02:47.191Z,18.80
2018-12-16T09:05:15.103Z,18.70
2018-12-16T09:07:42.603Z,18.70
2018-12-16T09:10:10.261Z,18.80
2018-12-16T09:12:37.769Z,18.70
2018-12-16T09:15:06.006Z,18.70
2018-12-16T09:17:33.511Z,18.70
2018-12-16T09:20:01.009Z,18.70
2018-12-16T09:22:28.539Z,18.70
2018-12-16T09:24:56.021Z,18.80
2018-12-16T09:27:23.517Z,18.70
2018-12-16T09:29:51.493Z,18.70
2018-12-16T09:32:18.985Z,18.70
2018-12-16T09:34:46.507Z,18.70
2018-12-16T09:37:14.004Z,18.70
2018-12-16T09:39:41.526Z,18.70
2018-12-16T09:42:09.013Z,18.70
2018-12-16T09:44:36.769Z,18.70
2018-12-16T09:47:04.293Z,18.70
2018-12-16T09:49:31.860Z,18.70
2018-12-16T09:52:00.011Z,18.70
2018-12-16T09:54:28.118Z,18.70
2018-12-16T09:56:55.650Z,18.70
2018-12-16T09:59:23.133Z,18.70
2018-12-16T10:01:50.645Z,18.70
2018-12-16T10:04:18.294Z,18.60
2018-12-16T10:06:45.803Z,18.70
2018-12-16T10:09:14.078Z,18.70
2018-12-16T10:11:41.593Z,18.70
2018-12-16T10:14:09.847Z,18.60
2018-12-16T10:16:37.353Z,18.70
2018-12-16T10:19:05.604Z,18.60
2018-12-16T10:21:33.117Z,18.70
2018-12-16T10:24:00.643Z,18.60
2018-12-16T10:26:28.156Z,18.70
2018-12-16T10:28:55.642Z,18.60
2018-12-16T10:31:23.733Z,18.70
2018-12-16T10:33:51.506Z,18.60
2018-12-16T10:36:20.681Z,18.60
2018-12-16T10:38:48.270Z,18.60
2018-12-16T10:41:15.858Z,18.60
2018-12-16T10:43:43.389Z,18.60
2018-12-16T10:46:10.873Z,18.60
2018-12-16T10:48:38.386Z,18.60
2018-12-16T10:51:05.946Z,18.60
2018-12-16T10:53:33.835Z,18.60
2018-12-16T10:56:01.323Z,18.60
2018-12-16T10:58:28.835Z,18.70
2018-12-16T11:03:58.038Z,18.70
2018-12-16T11:06:25.526Z,18.70
2018-12-16T11:08:53.907Z,18.70
2018-12-16T11:11:21.417Z,18.70
2018-12-16T11:13:48.901Z,18.70
2018-12-16T11:16:16.448Z,18.70
2018-12-16T11:18:43.946Z,18.70
2018-12-16T11:21:13.537Z,18.70
2018-12-16T11:23:43.214Z,18.70
2018-12-16T11:26:12.716Z,18.70
2018-12-16T11:28:40.221Z,18.80
2018-12-16T11:31:08.103Z,18.80
2018-12-16T11:33:38.030Z,18.90
2018-12-16T11:36:08.137Z,19.00
2018-12-16T11:38:35.663Z,19.10
2018-12-16T11:41:03.148Z,19.10
2018-12-16T11:43:30.858Z,19.20
2018-12-16T11:45:59.654Z,19.30
2018-12-16T11:48:29.332Z,19.40
2018-12-16T11:50:56.860Z,19.50
2018-12-16T11:53:24.359Z,19.60
2018-12-16T11:55:51.925Z,19.60
2018-12-16T11:58:21.403Z,19.70
2018-12-16T12:00:50.962Z,19.70
2018-12-16T12:03:18.574Z,19.80
2018-12-16T12:05:48.398Z,19.80
2018-12-16T12:08:18.144Z,19.90
2018-12-16T12:10:48.104Z,19.90
2018-12-16T12:13:17.897Z,19.90
2018-12-16T12:15:47.646Z,19.90
2018-12-16T12:18:17.152Z,19.90
2018-12-16T12:20:46.864Z,20.00
2018-12-16T12:23:16.478Z,20.00
2018-12-16T12:25:46.402Z,20.10
2018-12-16T12:28:16.702Z,20.00
2018-12-16T12:30:45.735Z,20.10
2018-12-16T12:33:15.771Z,20.10
2018-12-16T12:35:45.225Z,20.10
2018-12-16T12:38:15.108Z,20.10
2018-12-16T12:40:44.917Z,20.20
2018-12-16T12:43:14.585Z,20.20
2018-12-16T12:45:44.289Z,20.20
2018-12-16T12:48:13.806Z,20.20
2018-12-16T12:50:43.254Z,20.30
2018-12-16T12:53:13.116Z,20.20
2018-12-16T12:55:42.656Z,20.30
2018-12-16T12:58:12.324Z,20.30
2018-12-16T13:00:41.655Z,20.30
2018-12-16T13:03:11.284Z,20.40
2018-12-16T13:05:40.987Z,20.40
2018-12-16T13:08:10.609Z,20.40
2018-12-16T13:10:39.402Z,20.40
2018-12-16T13:13:09.267Z,20.40
2018-12-16T13:15:37.846Z,20.50
2018-12-16T13:18:07.854Z,20.50
2018-12-16T13:20:37.430Z,20.50
2018-12-16T13:23:07.308Z,20.50
2018-12-16T13:25:48.465Z,20.40
2018-12-16T13:28:18.375Z,20.40
2018-12-16T13:30:48.198Z,20.40
2018-12-16T13:33:17.108Z,20.40
2018-12-16T13:35:45.792Z,20.30
2018-12-16T13:38:15.721Z,20.30
2018-12-16T13:40:44.440Z,20.30
2018-12-16T13:43:14.421Z,20.30
2018-12-16T13:45:42.992Z,20.40
2018-12-16T13:48:12.436Z,20.40
2018-12-16T13:50:41.433Z,20.40
2018-12-16T13:53:11.481Z,20.40
2018-12-16T13:55:41.019Z,20.40
2018-12-16T13:58:08.714Z,20.50
2018-12-16T14:00:37.037Z,20.60
2018-12-16T14:03:04.896Z,20.50
2018-12-16T14:05:32.398Z,20.50
2018-12-16T14:07:59.939Z,20.60
2018-12-16T14:10:27.511Z,20.60
2018-12-16T14:12:55.016Z,20.70
2018-12-16T14:15:22.515Z,20.70
2018-12-16T14:17:50.022Z,20.70
2018-12-16T14:20:18.022Z,20.70
2018-12-16T14:22:45.592Z,20.70
2018-12-16T14:25:13.214Z,20.70
2018-12-16T14:27:41.420Z,20.70
2018-12-16T14:30:10.003Z,20.60
2018-12-16T14:32:37.518Z,20.50
2018-12-16T14:35:06.724Z,20.30
2018-12-16T14:37:34.225Z,20.30
2018-12-16T14:40:01.748Z,20.30
2018-12-16T14:42:29.264Z,20.40
2018-12-16T14:44:56.767Z,20.40
2018-12-16T14:47:24.288Z,20.50
2018-12-16T14:49:51.806Z,20.50
2018-12-16T14:52:19.295Z,20.40
2018-12-16T14:54:47.496Z,20.40
2018-12-16T14:57:15.406Z,20.40
2018-12-16T14:59:42.920Z,20.40
2018-12-16T15:02:10.426Z,20.50
2018-12-16T15:04:38.246Z,20.60
2018-12-16T15:07:05.900Z,20.60
2018-12-16T15:09:33.414Z,20.70
2018-12-16T15:12:01.384Z,20.70
2018-12-16T15:14:28.886Z,20.80
2018-12-16T15:16:56.390Z,20.80
2018-12-16T15:19:23.934Z,20.70
2018-12-16T15:21:51.439Z,20.60
2018-12-16T15:24:18.981Z,20.60
2018-12-16T15:26:46.497Z,20.60
2018-12-16T15:29:14.048Z,20.70
2018-12-16T15:31:41.728Z,20.80
2018-12-16T15:34:09.228Z,20.80
2018-12-16T15:36:36.750Z,20.90
2018-12-16T15:39:05.756Z,20.90
2018-12-16T15:41:33.254Z,21.00
2018-12-16T15:44:00.783Z,21.00
2018-12-16T15:46:28.302Z,21.00
2018-12-16T15:48:55.801Z,21.00
2018-12-16T15:51:23.311Z,20.90
2018-12-16T15:53:50.980Z,20.80
2018-12-16T15:56:18.682Z,20.80
2018-12-16T15:58:46.376Z,20.70
2018-12-16T16:01:13.997Z,20.60
2018-12-16T16:03:41.513Z,20.60
2018-12-16T16:06:09.527Z,20.50
2018-12-16T16:08:37.051Z,20.50
2018-12-16T16:11:04.570Z,20.50
2018-12-16T16:13:32.081Z,20.40
2018-12-16T16:15:59.599Z,20.40
2018-12-16T16:18:27.112Z,20.40
2018-12-16T16:20:55.226Z,20.50
2018-12-16T16:23:22.789Z,20.50
2018-12-16T16:25:50.304Z,20.60
2018-12-16T16:28:17.826Z,20.70
2018-12-16T16:30:45.376Z,20.60
2018-12-16T16:33:12.964Z,20.60
2018-12-16T16:35:40.625Z,20.50
2018-12-16T16:38:08.113Z,20.40
2018-12-16T16:40:35.890Z,20.40
2018-12-16T16:43:03.404Z,20.40
2018-12-16T16:45:31.391Z,20.30
2018-12-16T16:47:58.901Z,20.30
2018-12-16T16:50:26.413Z,20.40
2018-12-16T16:52:53.932Z,20.40
2018-12-16T16:55:21.437Z,20.50
2018-12-16T16:57:48.947Z,20.60
2018-12-16T17:00:16.450Z,20.70
2018-12-16T17:02:43.968Z,20.70
2018-12-16T17:05:11.555Z,20.80
2018-12-16T17:07:39.081Z,20.80
2018-12-16T17:10:07.107Z,20.80
2018-12-16T17:12:34.633Z,20.80
2018-12-16T17:15:02.150Z,20.90
2018-12-16T17:17:30.361Z,20.80
2018-12-16T17:19:57.889Z,20.70
2018-12-16T17:22:25.394Z,20.70
2018-12-16T17:24:53.271Z,20.60
2018-12-16T17:27:20.767Z,20.60
2018-12-16T17:29:48.275Z,20.60
2018-12-16T17:32:16.734Z,20.50
2018-12-16T17:34:44.421Z,20.60
2018-12-16T17:37:11.937Z,20.50
2018-12-16T17:39:39.439Z,20.70
2018-12-16T17:42:07.599Z,20.70
2018-12-16T17:44:35.090Z,20.70
2018-12-16T17:47:02.622Z,20.70
2018-12-16T17:49:30.319Z,20.60
2018-12-16T17:51:57.974Z,20.60
2018-12-16T17:54:25.725Z,20.60
2018-12-16T17:56:53.226Z,20.50
2018-12-16T17:59:21.026Z,20.60
2018-12-16T18:01:48.620Z,20.60
2018-12-16T18:04:16.212Z,20.60
2018-12-16T18:06:43.778Z,20.60
2018-12-16T18:09:11.358Z,20.60
2018-12-16T18:11:39.769Z,20.60
2018-12-16T18:14:07.721Z,20.60
2018-12-16T18:16:35.496Z,20.60
2018-12-16T18:19:02.998Z,20.50
2018-12-16T18:21:30.809Z,20.50
2018-12-16T18:23:58.398Z,20.50
2018-12-16T18:26:25.905Z,20.60
2018-12-16T18:28:53.520Z,20.80
2018-12-16T18:31:21.049Z,21.00
2018-12-16T18:33:48.573Z,21.20
2018-12-16T18:36:16.078Z,21.20
2018-12-16T18:38:43.589Z,21.20
2018-12-16T18:41:11.263Z,21.10
2018-12-16T18:43:38.765Z,21.00
2018-12-16T18:46:06.287Z,21.00
2018-12-16T18:48:33.813Z,21.00
2018-12-16T18:51:01.783Z,21.00
2018-12-16T18:53:29.494Z,21.00
2018-12-16T18:55:57.295Z,20.90
2018-12-16T18:58:24.798Z,20.90
2018-12-16T19:00:53.006Z,20.90
2018-12-16T19:03:20.507Z,20.90
2018-12-16T19:05:48.695Z,20.80
2018-12-16T19:08:16.390Z,20.80
2018-12-16T19:10:44.024Z,20.80
2018-12-16T19:13:11.526Z,20.70
2018-12-16T19:15:39.054Z,20.70
2018-12-16T19:18:06.798Z,20.70
2018-12-16T19:20:34.481Z,20.70
2018-12-16T19:23:02.027Z,20.70
2018-12-16T19:25:29.544Z,20.70
2018-12-16T19:27:58.208Z,20.70
2018-12-16T19:30:25.885Z,20.70
2018-12-16T19:32:53.582Z,20.60
2018-12-16T19:35:21.260Z,20.70
2018-12-16T19:37:48.825Z,20.60
2018-12-16T19:40:16.337Z,20.60
2018-12-16T19:42:43.839Z,20.60
2018-12-16T19:45:11.660Z,20.60
2018-12-16T19:47:39.182Z,20.60
2018-12-16T19:50:07.662Z,20.60
2018-12-16T19:52:35.293Z,20.80
2018-12-16T19:55:03.142Z,20.90
2018-12-16T19:57:30.656Z,21.00
2018-12-16T19:59:58.335Z,20.90
2018-12-16T20:02:26.162Z,20.90
2018-12-16T20:05:10.625Z,20.90
2018-12-16T20:07:38.708Z,20.80
2018-12-16T20:10:06.287Z,20.70
2018-12-16T20:12:33.917Z,20.70
2018-12-16T20:15:01.467Z,20.70
2018-12-16T20:17:29.457Z,20.70
2018-12-16T20:19:56.944Z,20.60
2018-12-16T20:22:24.466Z,20.60
2018-12-16T20:24:51.974Z,20.60
2018-12-16T20:27:19.570Z,20.70
2018-12-16T20:29:47.113Z,20.70
2018-12-16T20:32:14.620Z,20.80
2018-12-16T20:34:42.144Z,21.00
2018-12-16T20:37:09.669Z,21.10
2018-12-16T20:39:37.170Z,21.20
2018-12-16T20:42:04.679Z,21.20
2018-12-16T20:44:32.193Z,21.20
2018-12-16T20:46:59.697Z,21.10
2018-12-16T20:49:27.210Z,20.90
2018-12-16T20:51:54.714Z,20.90
2018-12-16T20:54:22.269Z,20.80
2018-12-16T20:56:49.789Z,20.80
2018-12-16T20:59:17.392Z,20.80
2018-12-16T21:01:44.898Z,20.70
2018-12-16T21:04:12.404Z,20.70
2018-12-16T21:06:39.918Z,20.70
2018-12-16T21:09:07.414Z,20.60
2018-12-16T21:11:41.555Z,20.70
2018-12-16T21:14:14.934Z,20.60
2018-12-16T21:16:48.404Z,20.70
2018-12-16T21:19:16.184Z,20.80
2018-12-16T21:21:43.674Z,21.00
2018-12-16T21:24:11.511Z,21.10
2018-12-16T21:26:39.201Z,21.10
2018-12-16T21:29:06.916Z,21.10
2018-12-16T21:31:34.445Z,21.00
2018-12-16T21:34:01.961Z,20.90
2018-12-16T21:36:29.461Z,20.90
2018-12-16T21:38:56.965Z,20.80
2018-12-16T21:41:24.477Z,20.80
2018-12-16T21:43:51.996Z,20.70
2018-12-16T21:46:19.496Z,20.70
2018-12-16T21:48:47.080Z,20.70
2018-12-16T21:51:15.233Z,20.70
2018-12-16T21:53:42.775Z,20.70
2018-12-16T21:56:10.833Z,20.70
2018-12-16T21:58:38.752Z,20.70
2018-12-16T22:01:06.363Z,20.70
2018-12-16T22:03:34.289Z,20.70
2018-12-16T22:06:01.873Z,20.60
2018-12-16T22:08:30.369Z,20.60
2018-12-16T22:10:58.070Z,20.60
2018-12-16T22:13:26.078Z,20.60
2018-12-16T22:15:53.574Z,20.60
2018-12-16T22:18:21.100Z,20.60
2018-12-16T22:20:49.023Z,20.50
2018-12-16T22:23:17.120Z,20.50
2018-12-16T22:25:44.618Z,20.60
2018-12-16T22:28:12.120Z,20.80
2018-12-16T22:30:39.638Z,20.90
2018-12-16T22:33:07.150Z,20.90
2018-12-16T22:35:34.659Z,21.00
2018-12-16T22:38:02.162Z,21.00
2018-12-16T22:40:29.753Z,21.00
2018-12-16T22:42:57.437Z,20.90
2018-12-16T22:45:25.627Z,20.90
2018-12-16T22:47:53.143Z,20.80
2018-12-16T22:50:20.647Z,20.80
2018-12-16T22:52:48.156Z,20.80
2018-12-16T22:55:15.668Z,20.70
2018-12-16T22:57:47.029Z,20.70
2018-12-16T23:00:14.640Z,20.70
2018-12-16T23:02:42.151Z,20.70
2018-12-16T23:05:10.094Z,20.60
2018-12-16T23:07:37.672Z,20.60
2018-12-16T23:10:05.209Z,20.60
2018-12-16T23:12:33.706Z,20.60
2018-12-16T23:15:01.356Z,20.60
2018-12-16T23:17:29.188Z,20.50
2018-12-16T23:20:02.494Z,20.50
2018-12-16T23:22:30.172Z,20.50
2018-12-16T23:24:58.033Z,20.50
2018-12-16T23:27:25.773Z,20.50
2018-12-16T23:29:53.284Z,20.50
2018-12-16T23:32:21.493Z,20.50
2018-12-16T23:34:49.326Z,20.40
2018-12-16T23:37:17.734Z,20.50
2018-12-16T23:39:46.622Z,20.40
2018-12-16T23:42:14.125Z,20.40
2018-12-16T23:44:41.985Z,20.40
2018-12-16T23:47:09.929Z,20.40
2018-12-16T23:49:37.959Z,20.40
2018-12-16T23:52:05.481Z,20.40
2018-12-16T23:54:33.313Z,20.30
2018-12-16T23:57:01.363Z,20.40
2018-12-16T23:59:28.946Z,20.40
